Time;durP1;ratioP1;P1;durP2;ratioP2;P2;SDS_P1;SDS_P2;PMS_P1;PMS_P2;Temp;Humidity;BMP_temperature;BMP_pressure;BME280_temperature;BME280_humidity;BME280_pressure;Samples;Min_cycle;Max_cycle;Signal;HPM_P1;HPM_P2
2022/09/07 00:01:36;;;;;;;;;;;19.90;54.90;;;;;;5146445;27;19976;-47
2022/09/07 00:04:02;;;;;;;;;;;19.80;54.00;;;;;;5141291;27;19930;-47
2022/09/07 00:06:28;;;;;;;;;;;19.90;58.40;;;;;;5146765;27;19930;-51
2022/09/07 00:08:54;;;;;;;;;;;20.60;63.10;;;;;;5141094;27;20309;-50
2022/09/07 00:11:20;;;;;;;;;;;21.30;63.40;;;;;;5137345;27;20338;-45
2022/09/07 00:13:46;;;;;;;;;;;21.40;60.80;;;;;;5145695;27;19924;-46
2022/09/07 00:16:13;;;;;;;;;;;20.70;58.60;;;;;;5141050;27;19923;-49
2022/09/07 00:18:38;;;;;;;;;;;20.40;56.40;;;;;;5141407;27;19923;-50
2022/09/07 00:21:05;;;;;;;;;;;20.20;55.00;;;;;;5146657;27;20397;-47
2022/09/07 00:23:31;;;;;;;;;;;19.90;54.50;;;;;;5141088;27;19931;-49
2022/09/07 00:25:58;;;;;;;;;;;19.90;57.40;;;;;;5128238;27;19933;-47
2022/09/07 00:28:24;;;;;;;;;;;20.60;62.20;;;;;;5138381;27;19923;-46
2022/09/07 00:30:50;;;;;;;;;;;21.30;63.30;;;;;;5138854;27;19952;-48
2022/09/07 00:33:15;;;;;;;;;;;21.60;61.20;;;;;;5145987;27;19923;-47
2022/09/07 00:35:41;;;;;;;;;;;20.80;58.20;;;;;;5140805;27;19927;-46
2022/09/07 00:38:07;;;;;;;;;;;20.30;56.80;;;;;;5141137;27;20195;-44
2022/09/07 00:40:33;;;;;;;;;;;20.20;55.10;;;;;;5146134;27;19923;-46
2022/09/07 00:42:58;;;;;;;;;;;20.10;54.30;;;;;;5140877;27;19923;-45
2022/09/07 00:45:24;;;;;;;;;;;19.90;53.70;;;;;;5146387;27;19949;-48
2022/09/07 00:47:53;;;;;;;;;;;20.30;60.50;;;;;;5136939;27;19934;-45
2022/09/07 00:50:20;;;;;;;;;;;21.00;62.90;;;;;;5139861;27;19923;-47
2022/09/07 00:52:47;;;;;;;;;;;21.70;62.20;;;;;;5127389;27;19979;-49
2022/09/07 00:55:13;;;;;;;;;;;21.00;58.80;;;;;;5122518;27;19927;-50
2022/09/07 00:57:40;;;;;;;;;;;20.50;57.30;;;;;;5140621;27;20374;-46
2022/09/07 01:00:06;;;;;;;;;;;20.30;55.30;;;;;;5130585;27;20432;-47
2022/09/07 01:02:32;;;;;;;;;;;20.10;54.50;;;;;;5141890;27;19924;-46
2022/09/07 01:05:04;;;;;;;;;;;19.80;54.00;;;;;;5143133;27;20402;-54
2022/09/07 01:07:30;;;;;;;;;;;20.00;58.50;;;;;;5110582;27;20014;-47
2022/09/07 01:09:55;;;;;;;;;;;20.70;62.50;;;;;;5143825;27;20020;-46
2022/09/07 01:12:21;;;;;;;;;;;21.40;62.60;;;;;;5130439;27;19927;-46
2022/09/07 01:14:48;;;;;;;;;;;21.50;59.90;;;;;;5124359;27;19968;-45
2022/09/07 01:17:14;;;;;;;;;;;20.60;58.10;;;;;;5143870;27;19923;-44
2022/09/07 01:19:55;;;;;;;;;;;20.30;56.50;;;;;;5149443;27;20301;-45
2022/09/07 01:22:39;;;;;;;;;;;20.20;55.20;;;;;;5143725;27;19966;-45
2022/09/07 01:25:09;;;;;;;;;;;20.00;54.00;;;;;;5104577;27;20018;-46
2022/09/07 01:27:51;;;;;;;;;;;20.00;58.20;;;;;;5130022;27;19930;-48
2022/09/07 01:30:17;;;;;;;;;;;20.70;62.50;;;;;;5125109;27;20457;-47
2022/09/07 01:32:47;;;;;;;;;;;21.50;62.20;;;;;;5143727;27;19923;-46
2022/09/07 01:35:19;;;;;;;;;;;21.20;59.30;;;;;;5130430;27;19931;-46
2022/09/07 01:37:49;;;;;;;;;;;20.50;57.60;;;;;;5143794;27;19923;-47
2022/09/07 01:40:21;;;;;;;;;;;20.30;55.70;;;;;;5143678;27;20324;-45
2022/09/07 01:42:53;;;;;;;;;;;20.20;54.60;;;;;;5126830;27;19923;-47
2022/09/07 01:45:19;;;;;;;;;;;20.00;53.70;;;;;;5124168;27;19923;-45
2022/09/07 01:47:45;;;;;;;;;;;19.80;56.10;;;;;;5143046;27;20425;-45
2022/09/07 01:50:16;;;;;;;;;;;20.50;61.70;;;;;;5148965;27;19923;-46
2022/09/07 01:53:01;;;;;;;;;;;21.10;62.80;;;;;;5124461;27;20347;-45
2022/09/07 01:55:47;;;;;;;;;;;21.60;60.90;;;;;;5124616;27;20117;-45
2022/09/07 01:58:20;;;;;;;;;;;20.80;58.30;;;;;;5147918;27;19979;-45
2022/09/07 02:00:52;;;;;;;;;;;20.40;56.00;;;;;;5121472;27;19923;-46
2022/09/07 02:03:28;;;;;;;;;;;20.20;54.90;;;;;;5141461;27;20191;-45
2022/09/07 02:05:57;;;;;;;;;;;19.90;54.20;;;;;;5148284;27;19930;-49
2022/09/07 02:08:25;;;;;;;;;;;19.70;53.50;;;;;;5142884;27;20281;-47
2022/09/07 02:10:53;;;;;;;;;;;20.20;59.60;;;;;;5142283;27;19970;-45
2022/09/07 02:13:21;;;;;;;;;;;20.80;63.00;;;;;;5130207;27;20418;-47
2022/09/07 02:16:07;;;;;;;;;;;21.50;62.30;;;;;;5143055;27;19923;-45
2022/09/07 02:18:35;;;;;;;;;;;21.10;59.30;;;;;;5140311;27;20393;-52
2022/09/07 02:21:00;;;;;;;;;;;20.60;56.70;;;;;;5127702;27;20434;-47
2022/09/07 02:23:27;;;;;;;;;;;20.10;55.70;;;;;;5142443;27;19931;-45
2022/09/07 02:26:04;;;;;;;;;;;19.90;54.60;;;;;;5148268;27;19923;-45
2022/09/07 02:28:33;;;;;;;;;;;19.80;54.10;;;;;;5124399;27;20099;-46
2022/09/07 02:30:59;;;;;;;;;;;20.20;59.80;;;;;;5123980;27;20411;-47
2022/09/07 02:33:25;;;;;;;;;;;20.80;63.10;;;;;;5148516;27;19927;-47
2022/09/07 02:35:50;;;;;;;;;;;21.60;62.40;;;;;;5142867;27;20390;-47
2022/09/07 02:38:16;;;;;;;;;;;21.30;59.40;;;;;;5138513;27;19923;-43
2022/09/07 02:40:42;;;;;;;;;;;20.50;57.70;;;;;;5147201;27;20271;-45
2022/09/07 02:43:08;;;;;;;;;;;20.40;55.70;;;;;;5142370;27;19923;-45
2022/09/07 02:45:43;;;;;;;;;;;20.20;55.20;;;;;;5144763;27;19927;-54
2022/09/07 02:48:16;;;;;;;;;;;20.10;54.40;;;;;;5147714;27;19923;-47
2022/09/07 02:50:55;;;;;;;;;;;20.00;53.40;;;;;;5124203;27;19923;-44
2022/09/07 02:53:21;;;;;;;;;;;20.30;60.80;;;;;;5125564;27;20386;-52
2022/09/07 02:56:01;;;;;;;;;;;21.10;62.70;;;;;;5143946;27;19931;-53
2022/09/07 02:58:30;;;;;;;;;;;21.70;61.20;;;;;;5121153;27;19930;-44
2022/09/07 03:01:12;;;;;;;;;;;20.90;59.00;;;;;;5147158;27;20022;-50
2022/09/07 03:03:38;;;;;;;;;;;20.40;57.00;;;;;;5127745;27;19927;-44
2022/09/07 03:06:05;;;;;;;;;;;20.30;55.10;;;;;;5142064;27;19975;-47
2022/09/07 03:08:35;;;;;;;;;;;20.00;54.70;;;;;;5147758;27;20459;-45
2022/09/07 03:11:02;;;;;;;;;;;20.00;54.00;;;;;;5123089;27;20021;-45
2022/09/07 03:13:28;;;;;;;;;;;19.90;54.20;;;;;;5140082;27;19974;-47
2022/09/07 03:15:54;;;;;;;;;;;20.40;61.20;;;;;;5145255;27;20055;-46
2022/09/07 03:18:20;;;;;;;;;;;21.10;62.90;;;;;;5141303;27;20420;-45
2022/09/07 03:20:46;;;;;;;;;;;21.80;61.70;;;;;;5141768;27;19927;-44
2022/09/07 03:23:12;;;;;;;;;;;21.00;59.00;;;;;;5147408;27;19923;-44
2022/09/07 03:25:37;;;;;;;;;;;20.50;56.90;;;;;;5141879;27;19930;-49
2022/09/07 03:28:03;;;;;;;;;;;20.40;55.30;;;;;;5146272;27;19922;-55
2022/09/07 03:30:29;;;;;;;;;;;20.10;54.90;;;;;;5143274;27;20366;-45
2022/09/07 03:32:55;;;;;;;;;;;19.90;54.00;;;;;;5138242;27;19929;-45
2022/09/07 03:35:21;;;;;;;;;;;20.00;59.10;;;;;;5145879;27;20340;-47
2022/09/07 03:37:46;;;;;;;;;;;20.70;62.90;;;;;;5141541;27;19950;-45
2022/09/07 03:40:12;;;;;;;;;;;21.50;62.80;;;;;;5141604;27;19923;-47
2022/09/07 03:42:38;;;;;;;;;;;21.30;59.80;;;;;;5147035;27;19932;-47
2022/09/07 03:45:05;;;;;;;;;;;20.80;57.80;;;;;;5141762;27;19930;-47
2022/09/07 03:47:32;;;;;;;;;;;20.50;56.00;;;;;;5143411;27;19923;-52
2022/09/07 03:49:58;;;;;;;;;;;20.30;54.90;;;;;;5144693;27;19939;-47
2022/09/07 03:52:24;;;;;;;;;;;20.00;54.10;;;;;;5138509;27;19923;-47
2022/09/07 03:54:50;;;;;;;;;;;19.90;53.60;;;;;;5146479;27;20041;-46
2022/09/07 03:57:16;;;;;;;;;;;20.00;58.90;;;;;;5141445;27;20386;-46
2022/09/07 03:59:41;;;;;;;;;;;20.60;63.10;;;;;;5141704;27;20030;-50
2022/09/07 04:02:07;;;;;;;;;;;21.40;63.00;;;;;;5146776;27;19923;-46
2022/09/07 04:04:33;;;;;;;;;;;21.30;60.50;;;;;;5141393;27;20435;-44
2022/09/07 04:06:59;;;;;;;;;;;20.80;57.90;;;;;;5141338;27;19930;-46
2022/09/07 04:09:24;;;;;;;;;;;20.60;56.30;;;;;;5143545;27;19927;-45
2022/09/07 04:11:50;;;;;;;;;;;20.30;55.00;;;;;;5139356;27;19927;-46
2022/09/07 04:14:16;;;;;;;;;;;20.20;54.00;;;;;;5146475;27;19927;-46
2022/09/07 04:16:44;;;;;;;;;;;20.00;53.50;;;;;;5141227;27;19923;-48
2022/09/07 04:19:09;;;;;;;;;;;20.10;59.90;;;;;;5141034;27;20039;-49
2022/09/07 04:21:35;;;;;;;;;;;20.80;63.10;;;;;;5146466;27;19963;-46
2022/09/07 04:24:01;;;;;;;;;;;21.50;63.00;;;;;;5141085;27;19923;-45
2022/09/07 04:26:28;;;;;;;;;;;20.90;60.00;;;;;;5140458;27;19923;-45
2022/09/07 04:28:54;;;;;;;;;;;20.60;57.70;;;;;;5142734;27;19952;-45
2022/09/07 04:31:20;;;;;;;;;;;20.30;55.90;;;;;;5140390;27;19923;-45
2022/09/07 04:33:46;;;;;;;;;;;20.20;54.80;;;;;;5147482;27;20022;-45
2022/09/07 04:36:12;;;;;;;;;;;20.10;53.90;;;;;;5144573;27;19927;-47
2022/09/07 04:38:38;;;;;;;;;;;20.00;57.30;;;;;;5144518;27;20021;-47
2022/09/07 04:41:07;;;;;;;;;;;20.50;62.80;;;;;;5150200;27;19941;-45
2022/09/07 04:43:32;;;;;;;;;;;21.30;63.40;;;;;;5141392;27;19923;-45
2022/09/07 04:46:02;;;;;;;;;;;21.50;61.20;;;;;;5141436;27;19954;-51
2022/09/07 04:48:27;;;;;;;;;;;20.80;58.50;;;;;;5129651;27;19929;-45
2022/09/07 04:50:53;;;;;;;;;;;20.40;56.20;;;;;;5144210;27;19923;-45
2022/09/07 04:53:19;;;;;;;;;;;20.10;54.90;;;;;;5146328;27;19931;-54
2022/09/07 04:55:45;;;;;;;;;;;20.00;54.50;;;;;;5148327;27;20396;-47
2022/09/07 04:58:10;;;;;;;;;;;19.80;55.00;;;;;;5125828;27;20274;-47
2022/09/07 05:00:38;;;;;;;;;;;20.30;61.80;;;;;;5131372;27;19931;-46
2022/09/07 05:03:04;;;;;;;;;;;21.00;63.30;;;;;;5125820;27;19934;-47
2022/09/07 05:05:30;;;;;;;;;;;21.60;61.80;;;;;;5140150;27;19923;-46
2022/09/07 05:07:55;;;;;;;;;;;20.80;59.10;;;;;;5148850;27;20092;-45
2022/09/07 05:10:21;;;;;;;;;;;20.60;56.90;;;;;;5144158;27;19931;-44
2022/09/07 05:12:47;;;;;;;;;;;20.30;55.30;;;;;;5123377;27;20366;-44
2022/09/07 05:15:13;;;;;;;;;;;20.20;54.30;;;;;;5149297;27;19960;-46
2022/09/07 05:17:38;;;;;;;;;;;19.80;54.00;;;;;;5144119;27;19931;-44
2022/09/07 05:20:05;;;;;;;;;;;20.10;57.60;;;;;;5149671;27;19923;-46
2022/09/07 05:22:31;;;;;;;;;;;20.70;62.50;;;;;;5141038;27;20041;-47
2022/09/07 05:24:59;;;;;;;;;;;21.40;63.10;;;;;;5141703;27;20301;-46
2022/09/07 05:27:24;;;;;;;;;;;21.30;61.00;;;;;;5148762;27;20341;-46
2022/09/07 05:29:50;;;;;;;;;;;20.60;58.30;;;;;;5123251;27;19923;-45
2022/09/07 05:32:16;;;;;;;;;;;20.30;56.50;;;;;;5143764;27;20673;-45
2022/09/07 05:34:42;;;;;;;;;;;20.10;55.30;;;;;;5149084;27;19926;-45
2022/09/07 05:37:07;;;;;;;;;;;19.80;54.80;;;;;;5143753;27;19923;-46
2022/09/07 05:39:33;;;;;;;;;;;20.10;55.40;;;;;;5149082;27;19971;-49
2022/09/07 05:41:59;;;;;;;;;;;20.60;62.20;;;;;;5139704;27;19938;-44
2022/09/07 05:44:25;;;;;;;;;;;21.10;63.70;;;;;;5122568;27;20451;-49
2022/09/07 05:46:51;;;;;;;;;;;21.60;61.70;;;;;;5148200;27;19923;-46
2022/09/07 05:49:17;;;;;;;;;;;20.80;59.20;;;;;;5143549;27;19923;-47
2022/09/07 05:51:43;;;;;;;;;;;20.50;56.70;;;;;;5143475;27;20576;-46
2022/09/07 05:54:09;;;;;;;;;;;20.10;55.60;;;;;;5149266;27;19923;-44
2022/09/07 05:56:35;;;;;;;;;;;19.90;55.10;;;;;;5143645;27;19923;-44
2022/09/07 05:59:00;;;;;;;;;;;19.90;54.30;;;;;;5145882;27;19988;-52
2022/09/07 06:01:26;;;;;;;;;;;20.10;59.40;;;;;;5142095;27;19923;-47
2022/09/07 06:03:52;;;;;;;;;;;20.80;63.50;;;;;;5143081;27;19931;-46
2022/09/07 06:06:18;;;;;;;;;;;21.40;63.30;;;;;;5148665;27;20374;-45
2022/09/07 06:08:48;;;;;;;;;;;21.50;61.20;;;;;;5143168;27;19923;-44
2022/09/07 06:11:15;;;;;;;;;;;20.80;58.00;;;;;;5143003;27;19991;-46
2022/09/07 06:13:41;;;;;;;;;;;20.50;56.60;;;;;;5148662;27;19933;-45
2022/09/07 06:16:07;;;;;;;;;;;20.30;55.10;;;;;;5124380;27;19927;-46
2022/09/07 06:18:34;;;;;;;;;;;19.90;54.80;;;;;;5139074;27;19927;-51
2022/09/07 06:21:02;;;;;;;;;;;20.00;53.80;;;;;;5147373;27;20305;-46
2022/09/07 06:23:31;;;;;;;;;;;20.20;59.60;;;;;;5142654;27;20404;-44
2022/09/07 06:25:57;;;;;;;;;;;20.80;63.50;;;;;;5148622;27;20378;-45
2022/09/07 06:28:29;;;;;;;;;;;21.50;63.30;;;;;;5142779;27;19934;-47
2022/09/07 06:31:02;;;;;;;;;;;21.30;60.50;;;;;;5142683;27;20362;-46
2022/09/07 06:33:28;;;;;;;;;;;20.80;57.80;;;;;;5111243;27;20009;-48
2022/09/07 06:35:57;;;;;;;;;;;20.30;56.00;;;;;;5140182;27;20382;-48
2022/09/07 06:38:23;;;;;;;;;;;20.20;55.00;;;;;;5140752;27;20314;-46
2022/09/07 06:40:49;;;;;;;;;;;20.00;54.30;;;;;;5147811;27;20019;-46
2022/09/07 06:43:15;;;;;;;;;;;19.80;54.60;;;;;;5122411;27;20334;-48
2022/09/07 06:45:41;;;;;;;;;;;20.40;61.20;;;;;;5142529;27;19927;-45
2022/09/07 06:48:07;;;;;;;;;;;21.00;63.90;;;;;;5147727;27;20418;-47
2022/09/07 06:50:32;;;;;;;;;;;21.70;63.10;;;;;;5142482;27;20537;-46
2022/09/07 06:52:58;;;;;;;;;;;21.10;59.80;;;;;;5127689;27;20282;-48
2022/09/07 06:55:26;;;;;;;;;;;20.80;57.70;;;;;;5119606;27;20037;-49
2022/09/07 06:57:52;;;;;;;;;;;20.40;56.10;;;;;;5141196;27;19929;-48
2022/09/07 07:00:18;;;;;;;;;;;20.10;55.40;;;;;;5147507;27;19927;-46
2022/09/07 07:02:44;;;;;;;;;;;20.00;54.70;;;;;;5142352;27;19934;-43
2022/09/07 07:05:10;;;;;;;;;;;20.00;53.90;;;;;;5142229;27;20087;-45
2022/09/07 07:07:36;;;;;;;;;;;20.00;56.00;;;;;;5147668;27;20374;-50
2022/09/07 07:10:01;;;;;;;;;;;20.50;62.40;;;;;;5142288;27;19982;-48
2022/09/07 07:12:28;;;;;;;;;;;21.30;63.90;;;;;;5145284;27;20298;-50
2022/09/07 07:14:53;;;;;;;;;;;21.70;62.70;;;;;;5139820;27;19927;-45
2022/09/07 07:17:19;;;;;;;;;;;21.00;59.70;;;;;;5141636;27;19923;-45
2022/09/07 07:19:45;;;;;;;;;;;20.70;57.20;;;;;;5147421;27;19935;-46
2022/09/07 07:22:11;;;;;;;;;;;20.40;55.90;;;;;;5141922;27;19967;-47
2022/09/07 07:24:37;;;;;;;;;;;20.30;55.00;;;;;;5141981;27;20394;-44
2022/09/07 07:27:02;;;;;;;;;;;20.10;54.50;;;;;;5147333;27;19950;-45
2022/09/07 07:29:28;;;;;;;;;;;19.80;54.40;;;;;;5141900;27;19930;-47
2022/09/07 07:31:54;;;;;;;;;;;20.00;58.00;;;;;;5142704;27;19931;-55
2022/09/07 07:34:20;;;;;;;;;;;20.70;62.80;;;;;;5141791;27;19923;-50
2022/09/07 07:36:46;;;;;;;;;;;21.30;63.80;;;;;;5141741;27;19930;-50
2022/09/07 07:39:12;;;;;;;;;;;21.70;62.00;;;;;;5147379;27;19938;-45
2022/09/07 07:41:37;;;;;;;;;;;20.90;59.10;;;;;;5141815;27;20139;-46
2022/09/07 07:44:03;;;;;;;;;;;20.60;57.20;;;;;;5141792;27;20251;-47
2022/09/07 07:46:30;;;;;;;;;;;20.40;56.00;;;;;;5146856;27;19923;-47
2022/09/07 07:48:56;;;;;;;;;;;20.30;55.00;;;;;;5139630;27;20151;-48
2022/09/07 07:51:21;;;;;;;;;;;20.20;54.50;;;;;;5140785;27;19934;-55
2022/09/07 07:53:47;;;;;;;;;;;20.00;53.90;;;;;;5144176;27;20026;-47
2022/09/07 07:56:13;;;;;;;;;;;20.00;57.20;;;;;;5141736;27;19931;-51
2022/09/07 07:58:39;;;;;;;;;;;20.60;63.10;;;;;;5147201;27;19927;-49
2022/09/07 08:01:15;;;;;;;;;;;21.30;64.00;;;;;;5121067;27;20343;-46
2022/09/07 08:03:42;;;;;;;;;;;21.60;61.90;;;;;;5141306;27;19971;-46
2022/09/07 08:06:10;;;;;;;;;;;20.90;59.00;;;;;;5147087;27;19981;-45
2022/09/07 08:08:36;;;;;;;;;;;20.60;57.50;;;;;;5136550;27;19930;-48
2022/09/07 08:11:07;;;;;;;;;;;20.60;55.60;;;;;;5140247;27;19927;-45
2022/09/07 08:13:35;;;;;;;;;;;20.30;55.10;;;;;;5146473;27;19936;-45
2022/09/07 08:16:01;;;;;;;;;;;20.20;54.30;;;;;;5141131;27;19922;-45
2022/09/07 08:18:27;;;;;;;;;;;20.00;54.10;;;;;;5143236;27;20390;-54
2022/09/07 08:20:53;;;;;;;;;;;20.00;57.40;;;;;;5144691;27;19965;-44
2022/09/07 08:23:19;;;;;;;;;;;20.70;62.80;;;;;;5122478;27;19968;-45
2022/09/07 08:25:48;;;;;;;;;;;21.30;63.80;;;;;;5144263;27;19923;-52
2022/09/07 08:28:14;;;;;;;;;;;21.50;61.50;;;;;;5138360;27;19939;-48
2022/09/07 08:30:40;;;;;;;;;;;20.90;58.70;;;;;;5140512;27;19930;-45
2022/09/07 08:33:06;;;;;;;;;;;20.60;56.90;;;;;;5146258;27;19950;-46
2022/09/07 08:35:31;;;;;;;;;;;20.30;56.20;;;;;;5141121;27;19980;-44
2022/09/07 08:37:57;;;;;;;;;;;20.50;54.70;;;;;;5122409;27;19934;-45
2022/09/07 08:40:23;;;;;;;;;;;20.20;54.80;;;;;;5146536;27;19930;-45
2022/09/07 08:42:55;;;;;;;;;;;20.00;54.30;;;;;;5140887;27;20389;-45
2022/09/07 08:45:26;;;;;;;;;;;20.20;55.40;;;;;;5123619;27;20403;-48
2022/09/07 08:47:52;;;;;;;;;;;20.70;62.20;;;;;;5140303;27;19923;-48
2022/09/07 08:50:20;;;;;;;;;;;21.30;63.60;;;;;;5140545;27;19970;-46
2022/09/07 08:52:47;;;;;;;;;;;21.70;61.40;;;;;;5127789;27;19923;-46
2022/09/07 08:55:21;;;;;;;;;;;21.00;59.00;;;;;;5120996;27;19924;-45
2022/09/07 08:57:52;;;;;;;;;;;20.80;56.80;;;;;;5140821;27;20281;-45
2022/09/07 09:00:17;;;;;;;;;;;20.40;55.90;;;;;;5146152;27;20021;-45
2022/09/07 09:02:43;;;;;;;;;;;20.20;55.30;;;;;;5119649;27;19923;-47
2022/09/07 09:05:15;;;;;;;;;;;20.10;54.40;;;;;;5138026;27;19923;-46
2022/09/07 09:07:54;;;;;;;;;;;20.00;54.20;;;;;;5145593;27;19930;-45
2022/09/07 09:10:32;;;;;;;;;;;20.20;54.30;;;;;;5140401;27;19923;-47
2022/09/07 09:13:18;;;;;;;;;;;20.60;61.60;;;;;;5122196;27;20280;-45
2022/09/07 09:15:56;;;;;;;;;;;21.30;63.50;;;;;;5127711;27;19942;-45
2022/09/07 09:18:22;;;;;;;;;;;21.80;62.00;;;;;;5140605;27;19931;-44
2022/09/07 09:20:54;;;;;;;;;;;21.00;59.20;;;;;;5141273;27;20306;-53
2022/09/07 09:23:22;;;;;;;;;;;20.60;57.40;;;;;;5146523;27;19970;-46
2022/09/07 09:25:51;;;;;;;;;;;20.40;55.90;;;;;;5143203;27;20390;-45
2022/09/07 09:28:17;;;;;;;;;;;20.10;55.40;;;;;;5125085;27;19927;-47
2022/09/07 09:30:43;;;;;;;;;;;20.00;54.60;;;;;;5130959;27;19945;-45
2022/09/07 09:33:16;;;;;;;;;;;20.20;53.40;;;;;;5143587;27;20386;-46
2022/09/07 09:35:42;;;;;;;;;;;20.10;55.10;;;;;;5128761;27;19934;-47
2022/09/07 09:38:29;;;;;;;;;;;20.60;61.60;;;;;;5143685;27;19931;-47
2022/09/07 09:40:55;;;;;;;;;;;21.20;63.70;;;;;;5138996;27;19962;-46
2022/09/07 09:43:22;;;;;;;;;;;21.60;61.60;;;;;;5129473;27;19923;-46
2022/09/07 09:45:49;;;;;;;;;;;20.90;59.10;;;;;;5143635;27;19974;-44
2022/09/07 09:48:19;;;;;;;;;;;20.70;56.90;;;;;;5122921;27;19924;-44
2022/09/07 09:50:46;;;;;;;;;;;20.30;55.50;;;;;;5130479;27;20301;-45
2022/09/07 09:53:22;;;;;;;;;;;20.30;55.00;;;;;;5143420;27;19926;-46
2022/09/07 09:55:49;;;;;;;;;;;20.00;54.80;;;;;;5143445;27;20029;-45
2022/09/07 09:58:31;;;;;;;;;;;20.10;53.90;;;;;;5145900;27;19966;-46
2022/09/07 10:01:00;;;;;;;;;;;19.80;54.40;;;;;;5141459;27;20018;-47
2022/09/07 10:03:26;;;;;;;;;;;20.40;61.60;;;;;;5142791;27;19927;-46
2022/09/07 10:05:53;;;;;;;;;;;21.10;63.70;;;;;;5130136;27;20290;-48
2022/09/07 10:08:19;;;;;;;;;;;21.80;63.00;;;;;;5143282;27;19923;-45
2022/09/07 10:10:54;;;;;;;;;;;21.10;59.60;;;;;;5144468;27;19960;-56
2022/09/07 10:13:21;;;;;;;;;;;20.70;57.60;;;;;;5148638;27;19923;-46
2022/09/07 10:15:51;;;;;;;;;;;20.50;56.10;;;;;;5120912;27;19929;-46
2022/09/07 10:18:37;;;;;;;;;;;20.50;54.80;;;;;;5122539;27;19923;-44
2022/09/07 10:21:22;;;;;;;;;;;20.10;54.70;;;;;;5147211;27;19923;-44
2022/09/07 10:23:58;;;;;;;;;;;20.20;54.20;;;;;;5142706;27;20335;-47
2022/09/07 10:26:29;;;;;;;;;;;20.00;53.70;;;;;;5123130;27;20088;-47
2022/09/07 10:29:13;;;;;;;;;;;20.50;60.00;;;;;;5148267;27;19929;-48
2022/09/07 10:31:42;;;;;;;;;;;21.20;63.10;;;;;;5142320;27;19923;-46
2022/09/07 10:34:10;;;;;;;;;;;21.80;63.00;;;;;;5122929;27;20309;-52
2022/09/07 10:36:54;;;;;;;;;;;21.20;59.70;;;;;;5144942;27;19930;-45
2022/09/07 10:39:24;;;;;;;;;;;20.80;57.90;;;;;;5142063;27;19940;-44
2022/09/07 10:41:52;;;;;;;;;;;20.60;56.40;;;;;;5142766;27;20022;-44
2022/09/07 10:44:23;;;;;;;;;;;20.20;55.20;;;;;;5147370;27;21360;-45
2022/09/07 10:47:04;;;;;;;;;;;20.30;54.50;;;;;;5138401;27;20279;-45
2022/09/07 10:49:40;;;;;;;;;;;20.10;54.40;;;;;;5123931;27;19935;-51
2022/09/07 10:52:18;;;;;;;;;;;20.10;54.00;;;;;;5147747;27;19930;-44
2022/09/07 10:54:49;;;;;;;;;;;20.10;54.10;;;;;;5120110;27;19980;-47
2022/09/07 10:57:15;;;;;;;;;;;20.50;61.60;;;;;;5123515;27;20021;-52
2022/09/07 10:59:52;;;;;;;;;;;21.20;63.70;;;;;;5147881;27;19930;-47
2022/09/07 11:02:21;;;;;;;;;;;21.80;62.80;;;;;;5142491;27;19923;-45
2022/09/07 11:04:48;;;;;;;;;;;21.10;59.40;;;;;;5147532;27;20457;-50
2022/09/07 11:07:17;;;;;;;;;;;20.90;57.10;;;;;;5143018;27;19933;-46
2022/09/07 11:09:50;;;;;;;;;;;20.60;56.40;;;;;;5122736;27;20393;-48
2022/09/07 11:12:21;;;;;;;;;;;20.20;55.40;;;;;;5125094;27;20018;-45
2022/09/07 11:14:49;;;;;;;;;;;20.30;54.80;;;;;;5122482;27;20064;-45
2022/09/07 11:17:16;;;;;;;;;;;20.30;54.10;;;;;;5141655;27;20007;-44
2022/09/07 11:19:49;;;;;;;;;;;20.00;54.00;;;;;;5128955;27;20370;-45
2022/09/07 11:22:24;;;;;;;;;;;20.00;53.80;;;;;;5122406;27;19957;-45
2022/09/07 11:25:02;;;;;;;;;;;20.30;59.60;;;;;;5142243;27;20293;-47
2022/09/07 11:27:30;;;;;;;;;;;20.90;63.50;;;;;;5147421;27;19923;-44
2022/09/07 11:29:58;;;;;;;;;;;21.70;63.70;;;;;;5139288;27;19923;-51
2022/09/07 11:32:24;;;;;;;;;;;21.40;60.60;;;;;;5139743;27;20367;-48
2022/09/07 11:34:57;;;;;;;;;;;20.80;58.20;;;;;;5146788;27;19929;-46
2022/09/07 11:37:58;;;;;;;;;;;20.70;56.20;;;;;;5141647;27;20374;-46
2022/09/07 11:40:26;;;;;;;;;;;20.40;55.90;;;;;;5086563;27;19958;-47
2022/09/07 11:42:54;;;;;;;;;;;20.30;54.80;;;;;;5146302;27;19966;-46
2022/09/07 11:45:23;;;;;;;;;;;20.20;54.20;;;;;;5122317;27;20377;-45
2022/09/07 11:47:53;;;;;;;;;;;20.30;53.70;;;;;;5139596;27;20658;-49
2022/09/07 11:50:22;;;;;;;;;;;19.90;54.10;;;;;;5125789;27;20026;-47
2022/09/07 11:52:51;;;;;;;;;;;20.10;59.30;;;;;;5122231;27;19927;-46
2022/09/07 11:55:19;;;;;;;;;;;20.90;62.70;;;;;;5106673;27;20335;-51
2022/09/07 11:57:51;;;;;;;;;;;21.50;63.60;;;;;;5128437;27;19933;-47
2022/09/07 12:00:25;;;;;;;;;;;21.50;60.70;;;;;;5140990;27;19923;-47
2022/09/07 12:03:03;;;;;;;;;;;21.00;58.40;;;;;;5128030;27;19967;-48
2022/09/07 12:05:47;;;;;;;;;;;20.60;56.30;;;;;;5146457;27;19930;-46
2022/09/07 12:08:32;;;;;;;;;;;20.30;55.70;;;;;;5137428;27;19923;-46
2022/09/07 12:11:07;;;;;;;;;;;20.30;54.70;;;;;;5140840;27;19923;-45
2022/09/07 12:13:36;;;;;;;;;;;20.10;54.40;;;;;;5146560;27;19923;-45
2022/09/07 12:16:20;;;;;;;;;;;20.10;53.70;;;;;;5121146;27;20018;-44
2022/09/07 12:18:59;;;;;;;;;;;19.90;54.00;;;;;;5141187;27;20197;-46
2022/09/07 12:21:44;;;;;;;;;;;20.20;58.00;;;;;;5146694;27;20018;-45
2022/09/07 12:24:28;;;;;;;;;;;20.80;62.80;;;;;;5140106;27;19927;-49
2022/09/07 12:26:54;;;;;;;;;;;21.70;63.00;;;;;;5137832;27;19937;-47
2022/09/07 12:29:21;;;;;;;;;;;21.30;59.90;;;;;;5145796;27;19923;-46
2022/09/07 12:31:48;;;;;;;;;;;21.00;57.70;;;;;;5141103;27;20285;-47
2022/09/07 12:34:37;;;;;;;;;;;20.80;56.40;;;;;;5122729;27;19987;-45
2022/09/07 12:37:08;;;;;;;;;;;20.60;55.50;;;;;;5132842;27;19923;-45
2022/09/07 12:39:36;;;;;;;;;;;20.30;54.00;;;;;;5140969;27;19923;-45
2022/09/07 12:42:05;;;;;;;;;;;20.20;54.00;;;;;;5140908;27;20113;-46
2022/09/07 12:44:31;;;;;;;;;;;20.20;53.80;;;;;;5142019;27;19923;-47
2022/09/07 12:46:57;;;;;;;;;;;20.10;53.50;;;;;;5139984;27;20434;-45
2022/09/07 12:49:29;;;;;;;;;;;20.20;53.50;;;;;;5143720;27;19984;-55
2022/09/07 12:51:55;;;;;;;;;;;20.10;54.50;;;;;;5127460;27;19929;-44
2022/09/07 12:54:50;;;;;;;;;;;20.50;61.10;;;;;;5141189;27;19928;-45
2022/09/07 12:57:22;;;;;;;;;;;21.20;62.60;;;;;;5052659;27;19932;-51
2022/09/07 13:00:04;;;;;;;;;;;21.80;60.50;;;;;;5149949;27;20974;-47
2022/09/07 13:02:36;;;;;;;;;;;21.00;57.90;;;;;;5140496;27;20489;-48
2022/09/07 13:05:04;;;;;;;;;;;20.80;55.90;;;;;;5143073;27;19923;-50
2022/09/07 13:07:49;;;;;;;;;;;20.40;55.20;;;;;;5149343;27;20003;-47
2022/09/07 13:10:25;;;;;;;;;;;20.50;54.10;;;;;;5144072;27;19927;-45
2022/09/07 13:12:51;;;;;;;;;;;20.30;53.70;;;;;;5144143;27;19962;-45
2022/09/07 13:15:50;;;;;;;;;;;20.20;53.60;;;;;;5113828;27;20376;-46
2022/09/07 13:18:24;;;;;;;;;;;20.20;52.90;;;;;;5082889;27;19927;-44
2022/09/07 13:21:11;;;;;;;;;;;20.10;52.90;;;;;;5140240;27;19971;-46
2022/09/07 13:23:37;;;;;;;;;;;20.00;53.20;;;;;;5148246;27;19926;-51
2022/09/07 13:26:07;;;;;;;;;;;20.30;57.40;;;;;;5143770;27;19923;-48
2022/09/07 13:28:37;;;;;;;;;;;20.90;61.30;;;;;;5125065;27;19927;-48
2022/09/07 13:31:19;;;;;;;;;;;21.60;61.40;;;;;;5130588;27;20021;-47
2022/09/07 13:33:46;;;;;;;;;;;21.50;59.00;;;;;;5125335;27;19927;-45
2022/09/07 13:36:19;;;;;;;;;;;21.00;56.70;;;;;;5143788;27;19942;-44
2022/09/07 13:38:46;;;;;;;;;;;20.70;55.50;;;;;;5146090;27;19929;-48
2022/09/07 13:41:12;;;;;;;;;;;20.60;54.50;;;;;;5141568;27;20325;-46
2022/09/07 13:43:38;;;;;;;;;;;20.30;54.20;;;;;;5124714;27;20132;-54
2022/09/07 13:46:06;;;;;;;;;;;20.20;53.90;;;;;;5128578;27;19977;-47
2022/09/07 13:48:36;;;;;;;;;;;20.30;53.20;;;;;;5124212;27;20688;-45
2022/09/07 13:51:21;;;;;;;;;;;20.10;53.10;;;;;;5130390;27;19937;-45
2022/09/07 13:54:02;;;;;;;;;;;20.10;53.10;;;;;;5146673;27;19923;-46
2022/09/07 13:56:31;;;;;;;;;;;20.40;58.90;;;;;;5141320;27;20400;-49
2022/09/07 13:58:57;;;;;;;;;;;21.20;60.90;;;;;;5127763;27;20017;-47
2022/09/07 14:01:23;;;;;;;;;;;21.80;59.50;;;;;;5142717;27;20006;-45
2022/09/07 14:03:53;;;;;;;;;;;21.30;57.20;;;;;;5143001;27;20390;-44
2022/09/07 14:06:19;;;;;;;;;;;20.80;55.50;;;;;;5147447;27;20885;-44
2022/09/07 14:08:45;;;;;;;;;;;20.70;54.20;;;;;;5142971;27;19923;-47
2022/09/07 14:11:19;;;;;;;;;;;20.40;53.90;;;;;;5124712;27;19923;-45
2022/09/07 14:13:44;;;;;;;;;;;20.30;53.20;;;;;;5128920;27;19924;-47
2022/09/07 14:16:10;;;;;;;;;;;20.30;53.00;;;;;;5118582;27;20069;-50
2022/09/07 14:18:36;;;;;;;;;;;20.10;53.10;;;;;;5123111;27;19931;-44
2022/09/07 14:21:02;;;;;;;;;;;20.00;52.60;;;;;;5128569;27;19972;-46
2022/09/07 14:23:28;;;;;;;;;;;19.90;54.30;;;;;;5142770;27;19923;-46
2022/09/07 14:26:07;;;;;;;;;;;20.60;59.20;;;;;;5129880;27;19928;-48
2022/09/07 14:28:36;;;;;;;;;;;21.30;60.40;;;;;;5144126;27;19930;-45